Time;durP1;ratioP1;P1;durP2;ratioP2;P2;SDS_P1;SDS_P2;PMS_P1;PMS_P2;Temp;Humidity;BMP_temperature;BMP_pressure;BME280_temperature;BME280_humidity;BME280_pressure;Samples;Min_cycle;Max_cycle;Signal;HPM_P1;HPM_P2
2024/04/15 00:01:39;;;;;;;5.68;1.63;;;17.00;65.60;;;;;;4470592;26;20010;-52
2024/04/15 00:04:21;;;;;;;6.15;1.85;;;17.00;65.70;;;;;;4470065;26;20022;-50
2024/04/15 00:07:02;;;;;;;5.95;1.40;;;17.00;66.60;;;;;;4470142;26;20354;-47
2024/04/15 00:09:47;;;;;;;1.77;1.20;;;17.00;65.80;;;;;;4470158;26;20043;-49
2024/04/15 00:12:30;;;;;;;5.30;1.60;;;17.00;65.80;;;;;;4470441;26;20076;-53
2024/04/15 00:15:13;;;;;;;6.05;1.73;;;17.00;65.60;;;;;;4469536;26;20018;-48
2024/04/15 00:17:54;;;;;;;7.80;1.55;;;17.00;65.60;;;;;;4469766;26;20049;-50
2024/04/15 00:20:37;;;;;;;4.60;1.65;;;16.90;65.70;;;;;;4453051;26;20454;-50
2024/04/15 00:23:17;;;;;;;4.85;1.52;;;16.90;65.80;;;;;;4470252;26;20393;-50
2024/04/15 00:26:00;;;;;;;4.82;1.48;;;16.90;65.90;;;;;;4472148;26;20039;-52
2024/04/15 00:28:43;;;;;;;4.90;1.33;;;16.90;65.90;;;;;;4472905;26;20466;-48
2024/04/15 00:31:26;;;;;;;7.55;2.08;;;16.90;65.80;;;;;;4472857;26;20018;-49
2024/04/15 00:34:06;;;;;;;5.70;2.00;;;16.90;65.80;;;;;;4470864;26;20366;-49
2024/04/15 00:36:49;;;;;;;4.50;1.48;;;16.90;65.90;;;;;;4472699;26;20015;-54
2024/04/15 00:39:29;;;;;;;7.90;2.45;;;16.90;66.90;;;;;;4472821;26;20057;-54
2024/04/15 00:42:12;;;;;;;3.72;1.48;;;16.80;65.90;;;;;;4472973;26;20014;-52
2024/04/15 00:44:55;;;;;;;5.25;1.63;;;16.80;65.90;;;;;;4490525;26;20010;-54
2024/04/15 00:47:38;;;;;;;5.47;1.42;;;16.80;65.90;;;;;;4470751;26;20018;-53
2024/04/15 00:50:18;;;;;;;4.78;1.25;;;16.80;66.10;;;;;;4470884;26;20089;-52
2024/04/15 00:53:04;;;;;;;7.75;1.77;;;16.80;66.10;;;;;;4470968;26;20018;-51
2024/04/15 00:55:47;;;;;;;3.50;1.50;;;16.80;66.10;;;;;;4491483;26;20453;-51
2024/04/15 00:58:30;;;;;;;7.07;1.60;;;16.80;66.20;;;;;;4498744;26;20854;-52
2024/04/15 01:01:13;;;;;;;3.63;1.45;;;16.80;66.10;;;;;;4500630;26;20014;-54
2024/04/15 01:03:58;;;;;;;7.93;2.45;;;16.70;66.00;;;;;;4500794;26;20017;-56
2024/04/15 01:06:40;;;;;;;6.00;1.52;;;16.80;66.20;;;;;;4499066;26;20372;-55
2024/04/15 01:09:23;;;;;;;6.55;1.33;;;16.70;66.20;;;;;;4499261;26;20014;-53
2024/04/15 01:12:07;;;;;;;5.18;1.90;;;16.70;66.20;;;;;;4498560;26;20507;-50
2024/04/15 01:14:47;;;;;;;7.55;1.60;;;16.70;66.20;;;;;;4489639;26;20010;-51
2024/04/15 01:17:32;;;;;;;5.47;1.48;;;16.70;66.30;;;;;;4468485;26;20033;-52
2024/04/15 01:20:13;;;;;;;8.57;1.85;;;16.70;66.20;;;;;;4467788;26;20080;-54
2024/04/15 01:23:01;;;;;;;3.53;1.73;;;16.70;66.40;;;;;;4470004;26;20010;-54
2024/04/15 01:25:43;;;;;;;6.07;1.92;;;16.70;66.50;;;;;;4462174;26;20019;-53
2024/04/15 01:28:27;;;;;;;7.35;1.58;;;16.70;66.50;;;;;;4469104;26;20031;-54
2024/04/15 01:31:08;;;;;;;5.95;1.70;;;16.60;66.50;;;;;;4495139;26;20079;-54
2024/04/15 01:33:51;;;;;;;2.30;1.35;;;16.60;66.60;;;;;;4498922;26;20013;-56
2024/04/15 01:36:31;;;;;;;4.72;1.20;;;16.60;66.70;;;;;;4497278;26;20018;-52
2024/04/15 01:39:14;;;;;;;6.80;1.30;;;16.60;66.80;;;;;;4497415;26;20396;-52
2024/04/15 01:41:57;;;;;;;7.78;1.73;;;16.60;66.80;;;;;;4498725;26;20474;-56
2024/04/15 01:44:40;;;;;;;4.85;1.75;;;16.60;66.60;;;;;;4498985;26;20014;-54
2024/04/15 01:47:20;;;;;;;8.15;1.40;;;16.60;66.60;;;;;;4500219;26;20017;-55
2024/04/15 01:50:03;;;;;;;6.17;1.50;;;16.60;66.70;;;;;;4499155;26;20017;-54
2024/04/15 01:52:44;;;;;;;4.20;1.55;;;16.60;66.80;;;;;;4499723;26;20277;-55
2024/04/15 01:55:26;;;;;;;7.03;1.98;;;16.60;66.90;;;;;;4496761;26;20072;-55
2024/04/15 01:58:09;;;;;;;5.72;1.60;;;16.60;66.90;;;;;;4497279;26;20018;-54
2024/04/15 02:00:52;;;;;;;5.50;1.50;;;16.50;66.90;;;;;;4498864;26;20440;-53
2024/04/15 02:03:32;;;;;;;6.43;1.83;;;16.50;67.00;;;;;;4498884;26;20014;-54
2024/04/15 02:06:15;;;;;;;4.95;1.45;;;16.50;67.10;;;;;;4500155;26;20433;-53
2024/04/15 02:08:55;;;;;;;7.75;1.77;;;16.50;67.10;;;;;;4476307;26;20014;-53
2024/04/15 02:11:38;;;;;;;10.32;1.50;;;16.50;67.10;;;;;;4478961;26;20018;-53
2024/04/15 02:14:20;;;;;;;3.88;1.70;;;16.50;67.00;;;;;;4463556;26;20010;-54
2024/04/15 02:17:03;;;;;;;4.35;1.60;;;16.50;67.00;;;;;;4469960;26;20018;-53
2024/04/15 02:19:43;;;;;;;5.38;1.30;;;16.50;67.10;;;;;;4471238;26;20405;-52
2024/04/15 02:22:26;;;;;;;7.28;2.13;;;16.40;67.10;;;;;;4471340;26;20508;-53
2024/04/15 02:25:07;;;;;;;6.18;1.65;;;16.40;67.10;;;;;;4471781;26;20080;-54
2024/04/15 02:27:50;;;;;;;6.00;1.95;;;16.40;67.10;;;;;;4495452;26;20016;-54
2024/04/15 02:30:33;;;;;;;6.95;1.80;;;16.40;68.00;;;;;;4482134;26;20014;-53
2024/04/15 02:33:16;;;;;;;4.78;1.40;;;16.40;67.10;;;;;;4471183;26;20453;-53
2024/04/15 02:35:56;;;;;;;7.97;1.67;;;16.40;67.20;;;;;;4467124;26;20053;-51
2024/04/15 02:38:39;;;;;;;8.10;1.50;;;16.40;67.20;;;;;;4471023;26;20054;-53
2024/04/15 02:41:19;;;;;;;5.43;1.60;;;16.40;67.20;;;;;;4466873;26;20342;-50
2024/04/15 02:44:02;;;;;;;4.65;1.55;;;16.40;67.40;;;;;;4471424;26;20080;-53
2024/04/15 02:46:45;;;;;;;6.07;1.52;;;16.30;67.40;;;;;;4500631;26;20013;-52
2024/04/15 02:49:28;;;;;;;4.90;1.40;;;16.40;67.40;;;;;;4500770;26;20017;-54
2024/04/15 02:52:08;;;;;;;5.68;1.85;;;16.30;67.50;;;;;;4501190;26;20612;-55
2024/04/15 02:54:51;;;;;;;5.28;1.38;;;16.30;67.50;;;;;;4500541;26;20017;-48
2024/04/15 02:57:31;;;;;;;9.70;1.77;;;16.30;67.50;;;;;;4520631;26;20017;-50
2024/04/15 03:00:15;;;;;;;4.60;1.30;;;16.30;67.60;;;;;;4471455;26;20076;-48
2024/04/15 03:03:00;;;;;;;6.88;2.13;;;16.30;67.70;;;;;;4471014;26;20017;-50
2024/04/15 03:05:41;;;;;;;7.10;1.70;;;16.30;67.70;;;;;;4471053;26;20356;-48
2024/04/15 03:08:23;;;;;;;6.10;1.20;;;16.30;67.90;;;;;;4470973;26;20013;-52
2024/04/15 03:11:13;;;;;;;4.85;1.20;;;16.30;67.80;;;;;;4468913;26;20018;-50
2024/04/15 03:13:53;;;;;;;2.13;1.40;;;16.20;67.60;;;;;;4471165;26;20018;-51
2024/04/15 03:16:36;;;;;;;4.43;1.48;;;16.30;67.80;;;;;;4470707;26;20010;-51
2024/04/15 03:19:19;;;;;;;3.55;1.63;;;16.20;67.70;;;;;;4471018;26;20018;-49
2024/04/15 03:22:01;;;;;;;5.03;1.30;;;16.20;67.80;;;;;;4470997;26;20018;-50
2024/04/15 03:24:41;;;;;;;8.75;1.75;;;16.20;67.90;;;;;;4469342;26;20022;-48
2024/04/15 03:27:24;;;;;;;6.80;1.40;;;16.20;67.90;;;;;;4470033;26;20013;-51
2024/04/15 03:30:06;;;;;;;4.45;1.63;;;16.20;68.00;;;;;;4483284;26;20071;-51
2024/04/15 03:32:49;;;;;;;4.78;1.52;;;16.20;68.10;;;;;;4470541;26;20022;-50
2024/04/15 03:35:31;;;;;;;5.75;1.42;;;16.20;68.20;;;;;;4470766;26;20489;-49
2024/04/15 03:38:15;;;;;;;8.13;1.73;;;16.20;68.20;;;;;;4470600;26;20303;-51
2024/04/15 03:40:58;;;;;;;8.00;1.60;;;16.20;68.10;;;;;;4471360;26;20018;-48
2024/04/15 03:43:40;;;;;;;5.05;1.58;;;16.20;68.10;;;;;;4470565;26;20072;-49
2024/04/15 03:46:22;;;;;;;3.03;1.27;;;16.20;68.20;;;;;;4469654;26;20017;-49
2024/04/15 03:49:05;;;;;;;6.25;1.90;;;16.10;68.30;;;;;;4467657;26;20015;-50
2024/04/15 03:51:47;;;;;;;6.10;1.27;;;16.20;69.30;;;;;;4469358;26;20425;-53
2024/04/15 03:54:30;;;;;;;5.30;1.67;;;16.20;68.20;;;;;;4470254;26;20017;-51
2024/04/15 03:57:11;;;;;;;5.10;1.45;;;16.10;68.10;;;;;;4470082;26;20448;-55
2024/04/15 03:59:54;;;;;;;6.43;1.92;;;16.10;68.10;;;;;;4470137;26;20015;-53
2024/04/15 04:02:34;;;;;;;9.50;2.08;;;16.10;68.00;;;;;;4475131;26;20022;-54
2024/04/15 04:05:17;;;;;;;5.47;1.45;;;16.10;68.10;;;;;;4468317;26;20076;-52
2024/04/15 04:08:00;;;;;;;4.65;1.70;;;16.10;68.10;;;;;;4473015;26;20022;-52
2024/04/15 04:10:43;;;;;;;4.22;1.42;;;16.10;68.00;;;;;;4471004;26;20395;-54
2024/04/15 04:13:23;;;;;;;6.80;1.65;;;16.10;68.90;;;;;;4471440;26;20044;-54
2024/04/15 04:16:07;;;;;;;3.83;1.65;;;16.10;68.00;;;;;;4472831;26;20014;-55
2024/04/15 04:18:47;;;;;;;4.47;1.55;;;16.10;68.10;;;;;;4475582;26;20038;-54
2024/04/15 04:21:30;;;;;;;5.43;1.40;;;16.10;68.30;;;;;;4502887;26;20068;-52
2024/04/15 04:24:13;;;;;;;6.90;1.80;;;16.10;68.20;;;;;;4500871;26;20033;-56
2024/04/15 04:26:56;;;;;;;3.83;1.42;;;16.10;68.00;;;;;;4500380;26;20013;-55
2024/04/15 04:29:37;;;;;;;5.25;1.73;;;16.10;68.00;;;;;;4496851;26;20370;-55
2024/04/15 04:32:19;;;;;;;3.97;1.42;;;16.10;68.10;;;;;;4472884;26;20018;-54
2024/04/15 04:34:59;;;;;;;6.88;1.55;;;16.00;67.90;;;;;;4478541;26;20010;-54
2024/04/15 04:37:42;;;;;;;3.55;1.50;;;16.00;67.90;;;;;;4502380;26;20075;-54
2024/04/15 04:40:27;;;;;;;7.63;1.88;;;16.00;68.00;;;;;;4502838;26;20017;-53
2024/04/15 04:43:08;;;;;;;6.57;2.00;;;16.00;68.00;;;;;;4493064;26;20018;-55
2024/04/15 04:45:51;;;;;;;8.10;2.10;;;16.00;68.20;;;;;;4472939;26;20013;-53
2024/04/15 04:48:31;;;;;;;4.63;1.48;;;16.00;68.30;;;;;;4472106;26;20010;-52
2024/04/15 04:51:14;;;;;;;6.15;1.80;;;16.00;68.40;;;;;;4474183;26;20018;-52
2024/04/15 04:53:54;;;;;;;8.40;1.85;;;16.00;68.40;;;;;;4472464;26;20440;-54
2024/04/15 04:56:42;;;;;;;3.92;1.65;;;16.00;68.60;;;;;;4472233;26;20342;-54
2024/04/15 04:59:22;;;;;;;5.57;2.00;;;16.00;68.50;;;;;;4472622;26;20018;-52
2024/04/15 05:02:06;;;;;;;7.25;2.00;;;16.00;68.60;;;;;;4472365;26;20080;-52
2024/04/15 05:04:46;;;;;;;4.97;1.60;;;16.00;68.60;;;;;;4470150;26;20014;-54
2024/04/15 05:07:29;;;;;;;4.80;1.75;;;16.00;68.60;;;;;;4480931;26;20010;-52
2024/04/15 05:10:10;;;;;;;4.40;1.52;;;16.00;68.50;;;;;;4501593;26;20017;-50
2024/04/15 05:12:55;;;;;;;7.72;1.75;;;16.00;69.50;;;;;;4502092;26;20025;-54
2024/04/15 05:15:35;;;;;;;7.10;1.98;;;16.00;69.80;;;;;;4502196;26;20014;-52
2024/04/15 05:18:19;;;;;;;4.22;2.08;;;16.00;69.20;;;;;;4501806;26;20079;-48
2024/04/15 05:20:59;;;;;;;3.17;1.98;;;16.00;69.20;;;;;;4498578;26;20079;-51
2024/04/15 05:23:42;;;;;;;4.53;1.60;;;16.00;69.20;;;;;;4476088;26;20573;-48
2024/04/15 05:26:22;;;;;;;5.38;1.60;;;16.00;69.30;;;;;;4500054;26;20416;-51
2024/04/15 05:29:08;;;;;;;3.45;1.98;;;16.00;69.20;;;;;;4470479;26;20052;-50
2024/04/15 05:31:48;;;;;;;5.20;1.92;;;16.00;69.20;;;;;;4470604;26;20018;-48
2024/04/15 05:34:33;;;;;;;4.25;2.15;;;16.10;69.40;;;;;;4484933;26;20013;-49
2024/04/15 05:37:13;;;;;;;4.57;2.17;;;16.10;70.30;;;;;;4497454;26;20013;-52
2024/04/15 05:39:56;;;;;;;4.85;1.95;;;16.10;69.60;;;;;;4469821;26;20446;-53
2024/04/15 05:42:39;;;;;;;5.22;1.85;;;16.10;69.50;;;;;;4467312;26;20015;-51
2024/04/15 05:45:27;;;;;;;3.83;1.67;;;16.10;69.30;;;;;;4469492;26;20039;-50
2024/04/15 05:48:07;;;;;;;5.85;2.50;;;16.10;69.00;;;;;;4469577;26;20022;-48
2024/04/15 05:50:51;;;;;;;4.85;1.92;;;16.20;69.30;;;;;;4502104;26;20544;-54
2024/04/15 05:53:33;;;;;;;8.68;2.17;;;16.20;69.30;;;;;;4500553;26;20022;-47
2024/04/15 05:56:14;;;;;;;6.32;1.70;;;16.20;69.30;;;;;;4499916;26;20013;-49
2024/04/15 05:58:57;;;;;;;4.20;2.00;;;16.10;69.80;;;;;;4501753;26;20490;-50
2024/04/15 06:01:40;;;;;;;6.45;1.80;;;16.20;70.10;;;;;;4500887;26;20305;-49
2024/04/15 06:04:23;;;;;;;7.00;2.35;;;16.20;69.10;;;;;;4491455;26;20043;-47
2024/04/15 06:07:04;;;;;;;4.40;2.10;;;16.20;69.00;;;;;;4471609;26;20012;-52
2024/04/15 06:09:47;;;;;;;6.65;2.47;;;16.20;68.70;;;;;;4466617;26;20083;-50
2024/04/15 06:12:28;;;;;;;7.18;1.88;;;16.20;68.80;;;;;;4471696;26;20014;-50
2024/04/15 06:15:11;;;;;;;4.45;2.28;;;16.20;69.00;;;;;;4471382;26;20141;-47
2024/04/15 06:17:54;;;;;;;6.50;1.85;;;16.20;69.70;;;;;;4471208;26;20018;-49
2024/04/15 06:20:37;;;;;;;5.43;2.25;;;16.30;70.70;;;;;;4483226;26;20071;-51
2024/04/15 06:23:18;;;;;;;10.73;2.47;;;16.30;70.90;;;;;;4500579;26;20079;-52
2024/04/15 06:26:00;;;;;;;7.35;2.13;;;16.30;70.70;;;;;;4501075;26;20093;-49
2024/04/15 06:28:40;;;;;;;7.22;2.88;;;16.30;71.20;;;;;;4501154;26;20399;-50
2024/04/15 06:31:23;;;;;;;5.85;2.65;;;16.30;70.00;;;;;;4501505;26;20010;-53
2024/04/15 06:34:06;;;;;;;6.35;2.33;;;16.40;69.70;;;;;;4501082;26;20043;-50
2024/04/15 06:36:50;;;;;;;6.32;2.30;;;16.30;68.80;;;;;;4481614;26;20019;-52
2024/04/15 06:39:30;;;;;;;6.43;2.20;;;16.30;68.60;;;;;;4492550;26;20012;-50
2024/04/15 06:42:13;;;;;;;9.43;2.70;;;16.30;68.20;;;;;;4487238;26;20041;-52
2024/04/15 06:44:53;;;;;;;4.25;1.92;;;16.40;68.00;;;;;;4498685;26;20083;-51
2024/04/15 06:47:36;;;;;;;3.88;2.20;;;16.40;67.60;;;;;;4475671;26;20017;-55
2024/04/15 06:50:19;;;;;;;8.65;2.22;;;16.40;67.30;;;;;;4491192;26;20470;-55
2024/04/15 06:53:04;;;;;;;8.60;2.53;;;16.50;67.20;;;;;;4499610;26;20433;-52
2024/04/15 06:55:44;;;;;;;6.20;2.40;;;16.50;66.60;;;;;;4500397;26;20070;-54
2024/04/15 06:58:27;;;;;;;12.32;2.65;;;16.60;66.50;;;;;;4498779;26;20017;-50
2024/04/15 07:01:08;;;;;;;5.07;2.40;;;16.60;65.60;;;;;;4477248;26;20016;-52
2024/04/15 07:03:51;;;;;;;5.22;1.92;;;16.70;64.90;;;;;;4468610;26;20494;-45
2024/04/15 07:06:34;;;;;;;4.05;1.50;;;16.70;64.20;;;;;;4481784;26;20052;-49
2024/04/15 07:09:17;;;;;;;6.90;2.13;;;16.80;63.80;;;;;;4485860;26;20010;-52
2024/04/15 07:11:57;;;;;;;9.43;2.60;;;16.80;63.60;;;;;;4500559;26;20087;-51
2024/04/15 07:14:40;;;;;;;7.32;2.17;;;16.80;63.10;;;;;;4480736;26;20017;-51
2024/04/15 07:17:20;;;;;;;7.50;2.30;;;16.80;62.90;;;;;;4499771;26;20363;-50
2024/04/15 07:20:03;;;;;;;5.50;2.05;;;16.90;62.90;;;;;;4497670;26;20461;-48
2024/04/15 07:22:48;;;;;;;8.23;2.60;;;16.90;62.80;;;;;;4496230;26;20013;-50
2024/04/15 07:25:29;;;;;;;7.15;1.98;;;16.90;62.70;;;;;;4496737;26;20055;-50
2024/04/15 07:28:12;;;;;;;7.53;1.67;;;16.90;62.70;;;;;;4492662;26;20049;-47
2024/04/15 07:30:57;;;;;;;7.18;2.15;;;16.90;63.20;;;;;;4492190;26;20014;-51
2024/04/15 07:33:42;;;;;;;5.93;1.95;;;16.90;61.70;;;;;;4494895;26;21359;-49
2024/04/15 07:36:22;;;;;;;6.30;2.08;;;16.90;61.50;;;;;;4494792;26;20013;-49
2024/04/15 07:39:08;;;;;;;5.38;1.83;;;16.90;61.60;;;;;;4496432;26;20035;-54
2024/04/15 07:41:49;;;;;;;2.53;1.60;;;16.80;61.60;;;;;;4496088;26;20039;-54
2024/04/15 07:44:31;;;;;;;4.57;1.50;;;16.80;61.60;;;;;;4494962;26;20338;-54
2024/04/15 07:47:12;;;;;;;5.75;2.15;;;16.80;61.60;;;;;;4495445;26;20013;-51
2024/04/15 07:49:55;;;;;;;7.10;2.00;;;16.80;61.40;;;;;;4494076;26;20013;-53
2024/04/15 07:52:35;;;;;;;8.10;1.85;;;16.80;61.30;;;;;;4495117;26;20018;-51
2024/04/15 07:55:21;;;;;;;4.37;2.03;;;16.80;61.50;;;;;;4496280;26;20017;-50
2024/04/15 07:58:05;;;;;;;8.27;2.13;;;16.80;61.60;;;;;;4496609;26;20072;-50
2024/04/15 08:00:45;;;;;;;6.95;2.00;;;16.70;61.50;;;;;;4494406;26;20017;-50
2024/04/15 08:03:28;;;;;;;5.90;1.83;;;16.70;61.50;;;;;;4496469;26;20018;-51
2024/04/15 08:06:09;;;;;;;3.92;1.40;;;16.70;61.50;;;;;;4494474;26;20075;-47
2024/04/15 08:08:52;;;;;;;10.32;2.53;;;16.70;61.80;;;;;;4493710;26;20322;-47
2024/04/15 08:11:38;;;;;;;4.05;1.92;;;16.70;61.80;;;;;;4494958;26;20047;-46
2024/04/15 08:14:20;;;;;;;9.10;2.25;;;16.60;61.60;;;;;;4495060;26;20013;-50
2024/04/15 08:17:03;;;;;;;4.57;1.95;;;16.60;61.70;;;;;;4495597;26;20017;-49
2024/04/15 08:19:43;;;;;;;7.40;2.10;;;16.70;61.70;;;;;;4494911;26;20047;-50
2024/04/15 08:22:26;;;;;;;7.28;2.22;;;16.60;61.50;;;;;;4495680;26;20018;-49
2024/04/15 08:25:08;;;;;;;2.08;1.38;;;16.60;61.50;;;;;;4493187;26;20048;-46
2024/04/15 08:27:54;;;;;;;1.98;1.17;;;16.60;61.50;;;;;;4494679;26;20405;-49
2024/04/15 08:30:35;;;;;;;5.10;1.67;;;16.70;61.50;;;;;;4491913;26;20013;-47
2024/04/15 08:33:19;;;;;;;10.50;3.60;;;16.60;61.20;;;;;;4490231;26;20403;-51
2024/04/15 08:36:00;;;;;;;6.40;2.20;;;16.70;60.90;;;;;;4494535;26;20659;-51
2024/04/15 08:38:44;;;;;;;9.85;2.33;;;16.60;61.00;;;;;;4493235;26;20013;-50
2024/04/15 08:41:26;;;;;;;3.80;1.48;;;16.60;61.00;;;;;;4495254;26;20016;-47
2024/04/15 08:44:16;;;;;;;8.63;2.17;;;16.70;61.20;;;;;;4495766;26;20071;-48
2024/04/15 08:47:03;;;;;;;5.00;1.63;;;16.70;61.20;;;;;;4496248;26;20013;-53
2024/04/15 08:49:46;;;;;;;8.32;2.28;;;16.70;61.10;;;;;;4498504;26;20051;-53
2024/04/15 08:52:26;;;;;;;5.32;1.75;;;16.70;61.00;;;;;;4497581;26;20480;-48
2024/04/15 08:55:10;;;;;;;3.30;1.95;;;16.70;61.80;;;;;;4497219;26;20083;-49
2024/04/15 08:57:52;;;;;;;4.60;1.80;;;16.80;60.90;;;;;;4498423;26;20013;-51
2024/04/15 09:00:38;;;;;;;6.57;2.13;;;16.70;60.60;;;;;;4498556;26;20026;-51
2024/04/15 09:03:20;;;;;;;2.75;1.60;;;16.80;60.50;;;;;;4498417;26;20017;-48
2024/04/15 09:06:03;;;;;;;1.80;1.02;;;16.80;60.40;;;;;;4498054;26;20014;-50
2024/04/15 09:08:43;;;;;;;4.93;1.80;;;16.80;60.20;;;;;;4498235;26;20113;-47
2024/04/15 09:11:26;;;;;;;6.77;2.50;;;16.80;60.00;;;;;;4498567;26;20018;-50
2024/04/15 09:14:06;;;;;;;6.10;1.65;;;16.80;59.80;;;;;;4498180;26;20083;-48
2024/04/15 09:16:54;;;;;;;5.32;2.15;;;16.80;60.30;;;;;;4495695;26;20071;-48
2024/04/15 09:19:35;;;;;;;6.80;2.22;;;16.80;59.40;;;;;;4497994;26;20038;-47
2024/04/15 09:22:18;;;;;;;1.42;1.00;;;16.80;59.30;;;;;;4497484;26;20021;-54
2024/04/15 09:24:58;;;;;;;4.75;2.10;;;16.80;59.30;;;;;;4496925;26;20058;-48
2024/04/15 09:27:41;;;;;;;1.95;1.25;;;16.80;59.20;;;;;;4498802;26;20017;-52
2024/04/15 09:30:21;;;;;;;8.07;2.00;;;16.90;59.00;;;;;;4498054;26;20598;-51
2024/04/15 09:33:11;;;;;;;2.53;1.38;;;16.80;58.80;;;;;;4496688;26;20014;-51
2024/04/15 09:35:52;;;;;;;3.40;1.60;;;16.80;58.50;;;;;;4497055;26;20014;-50
2024/04/15 09:38:38;;;;;;;6.00;1.70;;;16.80;58.30;;;;;;4497979;26;20078;-54
2024/04/15 09:41:22;;;;;;;7.20;1.13;;;16.80;58.20;;;;;;4517598;26;20018;-52
2024/04/15 09:44:06;;;;;;;2.58;1.23;;;16.80;58.20;;;;;;4496525;26;20350;-49
2024/04/15 09:46:48;;;;;;;1.52;1.20;;;16.80;58.20;;;;;;4492459;26;20335;-50
2024/04/15 09:49:34;;;;;;;;;;;16.80;58.90;;;;;;4497833;26;20049;-51
2024/04/15 09:52:19;;;;;;;2.90;0.85;;;16.80;58.20;;;;;;4494942;26;19930;-53
2024/04/15 09:55:08;;;;;;;2.70;1.27;;;16.80;58.70;;;;;;4493706;26;20017;-49
2024/04/15 09:57:52;;;;;;;5.43;1.17;;;16.80;57.80;;;;;;4493933;26;20752;-49
2024/04/15 10:00:40;;;;;;;4.35;1.20;;;16.80;57.60;;;;;;4495327;26;20103;-53
2024/04/15 10:03:24;;;;;;;4.65;1.30;;;16.80;57.80;;;;;;4496977;26;20017;-50
2024/04/15 10:06:15;;;;;;;4.43;1.42;;;16.80;57.40;;;;;;4496089;26;20043;-53
2024/04/15 10:08:56;;;;;;;0.93;0.63;;;16.80;57.20;;;;;;4497425;26;20009;-53
2024/04/15 10:11:40;;;;;;;1.67;0.85;;;16.80;57.00;;;;;;4497366;26;20021;-49
2024/04/15 10:14:21;;;;;;;2.95;1.05;;;16.80;57.00;;;;;;4496858;26;20083;-50
2024/04/15 10:17:06;;;;;;;0.90;0.90;;;16.80;57.00;;;;;;4495627;26;20017;-54
2024/04/15 10:19:48;;;;;;;5.10;0.98;;;16.80;56.90;;;;;;4495544;26;20013;-51
2024/04/15 10:22:33;;;;;;;2.92;0.95;;;16.80;56.80;;;;;;4496587;26;20010;-55
2024/04/15 10:25:14;;;;;;;1.52;0.50;;;16.80;56.60;;;;;;4495379;26;20075;-54
2024/04/15 10:27:57;;;;;;;7.00;0.88;;;16.70;56.30;;;;;;4497959;26;20557;-50
2024/04/15 10:30:38;;;;;;;2.05;1.00;;;16.70;56.20;;;;;;4497360;26;20456;-50
2024/04/15 10:33:22;;;;;;;2.35;1.17;;;16.70;56.10;;;;;;4496387;26;20014;-49
2024/04/15 10:36:04;;;;;;;5.32;1.08;;;16.70;56.20;;;;;;4496793;26;20017;-55
2024/04/15 10:38:54;;;;;;;3.83;1.40;;;16.70;56.40;;;;;;4496916;26;20010;-54
2024/04/15 10:41:35;;;;;;;3.20;0.70;;;16.60;56.50;;;;;;4496992;26;20487;-55
2024/04/15 10:44:18;;;;;;;2.33;1.52;;;16.60;56.70;;;;;;4497265;26;20017;-54
2024/04/15 10:46:58;;;;;;;1.65;1.20;;;16.60;56.80;;;;;;4496761;26;20009;-50
2024/04/15 10:49:44;;;;;;;8.20;1.58;;;16.60;57.50;;;;;;4497308;26;20160;-54
2024/04/15 10:52:24;;;;;;;4.32;1.33;;;16.60;56.70;;;;;;4497655;26;20017;-52
2024/04/15 10:55:10;;;;;;;3.25;1.30;;;16.60;56.80;;;;;;4495993;26;20013;-54
2024/04/15 10:57:51;;;;;;;2.30;1.38;;;16.50;56.90;;;;;;4496633;26;20067;-54
2024/04/15 11:00:33;;;;;;;5.28;2.20;;;16.50;57.20;;;;;;4497034;26;20017;-59
2024/04/15 11:03:14;;;;;;;5.43;1.50;;;16.50;57.40;;;;;;4499547;26;20052;-55
2024/04/15 11:05:58;;;;;;;4.50;1.23;;;16.50;57.70;;;;;;4500220;26;20341;-54
2024/04/15 11:08:38;;;;;;;3.53;1.30;;;16.50;58.00;;;;;;4500043;26;20023;-55
2024/04/15 11:11:24;;;;;;;2.53;1.20;;;16.50;58.20;;;;;;4478450;26;20075;-53
2024/04/15 11:14:10;;;;;;;3.55;1.20;;;16.40;58.30;;;;;;4500015;26;20326;-53
2024/04/15 11:16:53;;;;;;;3.08;1.30;;;16.40;58.80;;;;;;4499866;26;20161;-55
2024/04/15 11:19:33;;;;;;;4.57;1.40;;;16.40;59.10;;;;;;4500255;26;20080;-48
2024/04/15 11:22:16;;;;;;;4.35;1.35;;;16.40;59.40;;;;;;4488215;26;20367;-51
2024/04/15 11:24:59;;;;;;;4.05;1.75;;;16.40;59.80;;;;;;4500245;26;20035;-50
2024/04/15 11:27:49;;;;;;;5.28;1.83;;;16.50;60.20;;;;;;4497735;26;20016;-52
2024/04/15 11:30:30;;;;;;;4.85;1.90;;;16.40;60.10;;;;;;4483996;26;20006;-54
2024/04/15 11:33:17;;;;;;;4.88;2.17;;;16.40;60.80;;;;;;4470891;26;20053;-56
2024/04/15 11:35:58;;;;;;;7.03;1.83;;;16.50;61.40;;;;;;4468518;26;20009;-56
2024/04/15 11:38:41;;;;;;;5.17;2.60;;;16.50;62.10;;;;;;4468720;26;20023;-56
2024/04/15 11:41:22;;;;;;;4.82;1.70;;;16.50;62.90;;;;;;4470397;26;20014;-58
2024/04/15 11:44:07;;;;;;;3.27;2.27;;;16.60;63.80;;;;;;4494058;26;20516;-54
2024/04/15 11:46:48;;;;;;;2.40;1.60;;;16.60;64.50;;;;;;4500155;26;20087;-56
2024/04/15 11:49:30;;;;;;;2.22;1.75;;;16.60;64.70;;;;;;4470171;26;20088;-56
2024/04/15 11:52:13;;;;;;;5.95;2.05;;;16.70;64.80;;;;;;4469099;26;20092;-58
2024/04/15 11:54:56;;;;;;;2.90;2.20;;;16.70;64.90;;;;;;4470389;26;20018;-54
2024/04/15 11:57:39;;;;;;;3.30;2.33;;;16.70;66.20;;;;;;4490486;26;20014;-51
2024/04/15 12:00:22;;;;;;;4.57;2.75;;;16.80;65.50;;;;;;4470163;26;20417;-51
2024/04/15 12:03:05;;;;;;;3.92;3.08;;;16.80;65.50;;;;;;4496973;26;20017;-59
2024/04/15 12:05:46;;;;;;;5.55;3.22;;;16.90;65.70;;;;;;4483194;26;20364;-60
2024/04/15 12:08:28;;;;;;;4.07;2.92;;;16.90;65.80;;;;;;4471013;26;20137;-58
2024/04/15 12:11:12;;;;;;;3.97;2.97;;;17.00;65.80;;;;;;4497804;26;20490;-57
2024/04/15 12:13:56;;;;;;;3.53;2.42;;;17.00;65.70;;;;;;4477877;26;20076;-56
2024/04/15 12:16:38;;;;;;;5.15;2.83;;;17.00;65.60;;;;;;4498857;26;20057;-50
2024/04/15 12:19:22;;;;;;;6.75;2.70;;;17.00;66.40;;;;;;4499034;26;20018;-48
2024/04/15 12:22:02;;;;;;;7.93;3.42;;;17.00;66.50;;;;;;4501649;26;20463;-47
2024/04/15 12:24:45;;;;;;;3.50;2.70;;;17.00;66.20;;;;;;4478450;26;20085;-47
2024/04/15 12:27:36;;;;;;;3.63;2.55;;;17.00;66.20;;;;;;4501621;26;20433;-51
2024/04/15 12:30:20;;;;;;;3.58;2.33;;;17.00;66.30;;;;;;4487256;26;20018;-49
2024/04/15 12:33:03;;;;;;;4.80;3.17;;;17.00;66.00;;;;;;4475159;26;20014;-53
2024/04/15 12:35:48;;;;;;;3.03;2.78;;;16.90;66.20;;;;;;4493455;26;20013;-50
2024/04/15 12:38:31;;;;;;;6.72;3.00;;;16.90;66.60;;;;;;4501195;26;20017;-53
2024/04/15 12:41:11;;;;;;;4.53;2.30;;;16.90;66.80;;;;;;4502088;26;20415;-52
2024/04/15 12:43:55;;;;;;;3.35;2.33;;;16.90;66.90;;;;;;4501772;26;20055;-51
2024/04/15 12:46:35;;;;;;;3.90;2.13;;;16.90;67.20;;;;;;4490766;26;20029;-52
2024/04/15 12:49:21;;;;;;;5.75;2.25;;;17.00;67.30;;;;;;4498911;26;20021;-50
2024/04/15 12:52:01;;;;;;;3.75;2.33;;;16.90;67.20;;;;;;4499677;26;20013;-53
2024/04/15 12:54:44;;;;;;;3.58;2.40;;;16.90;67.20;;;;;;4486264;26;20014;-52
2024/04/15 12:57:26;;;;;;;9.05;2.60;;;16.90;67.00;;;;;;4493108;26;20496;-52
2024/04/15 13:00:11;;;;;;;3.72;1.98;;;16.80;66.80;;;;;;4475818;26;20053;-53
2024/04/15 13:02:52;;;;;;;3.25;1.42;;;16.80;66.50;;;;;;4499613;26;20453;-53
2024/04/15 13:05:39;;;;;;;1.10;1.00;;;16.70;66.60;;;;;;4500061;26;20091;-55
2024/04/15 13:08:19;;;;;;;1.05;0.90;;;16.80;66.70;;;;;;4501468;26;20432;-53
2024/04/15 13:11:02;;;;;;;1.17;0.80;;;16.70;66.60;;;;;;4502577;26;20013;-54
2024/04/15 13:13:45;;;;;;;1.60;1.17;;;16.60;66.10;;;;;;4500883;26;20014;-51
2024/04/15 13:16:28;;;;;;;2.00;0.80;;;16.60;65.90;;;;;;4485165;26;20022;-49
2024/04/15 13:19:08;;;;;;;1.50;0.85;;;16.60;66.70;;;;;;4486227;26;20442;-52
2024/04/15 13:21:53;;;;;;;2.08;0.68;;;16.60;67.50;;;;;;4472227;26;20400;-51
2024/04/15 13:24:34;;;;;;;0.63;0.60;;;16.50;67.80;;;;;;4472954;26;20015;-49
2024/04/15 13:27:16;;;;;;;2.38;0.90;;;16.60;67.90;;;;;;4470506;26;20085;-47
2024/04/15 13:29:57;;;;;;;1.92;0.90;;;16.60;67.50;;;;;;4499211;26;20046;-56
2024/04/15 13:32:39;;;;;;;3.38;1.00;;;16.60;67.50;;;;;;4495733;26;20017;-60
2024/04/15 13:35:20;;;;;;;1.60;0.80;;;16.70;67.10;;;;;;4501843;26;20037;-48
2024/04/15 13:38:06;;;;;;;3.08;1.10;;;16.70;66.50;;;;;;4501574;26;20026;-48
2024/04/15 13:40:47;;;;;;;3.40;1.33;;;16.70;67.00;;;;;;4472268;26;20019;-53
2024/04/15 13:43:29;;;;;;;2.45;1.15;;;16.70;67.30;;;;;;4471643;26;20064;-66
2024/04/15 13:46:10;;;;;;;2.63;1.02;;;16.80;67.10;;;;;;4470401;26;20057;-58
2024/04/15 13:48:54;;;;;;;2.88;1.30;;;16.80;67.30;;;;;;4482334;26;20017;-56
2024/04/15 13:51:35;;;;;;;1.92;1.20;;;16.80;67.30;;;;;;4499015;26;20014;-59
2024/04/15 13:54:20;;;;;;;1.55;1.25;;;16.80;67.40;;;;;;4501347;26;20014;-51
2024/04/15 13:57:01;;;;;;;2.17;1.00;;;16.80;67.50;;;;;;4500325;26;20063;-49
2024/04/15 13:59:46;;;;;;;3.63;1.60;;;16.80;67.60;;;;;;4479594;26;20019;-50
2024/04/15 14:02:26;;;;;;;1.50;1.40;;;16.80;67.30;;;;;;4487585;26;20329;-49
2024/04/15 14:05:10;;;;;;;4.03;1.65;;;16.80;67.80;;;;;;4472198;26;20047;-53
2024/04/15 14:07:51;;;;;;;3.20;1.15;;;16.80;66.90;;;;;;4481545;26;20013;-53